sensor_id;sensor_type;location;lat;lon;timestamp;P1;durP1;ratioP1;P2;durP2;ratioP2
16928;SDS011;8581;47.334;11.190;2023-07-20T00:00:31;8.50;;;7.63;;
16928;SDS011;8581;47.334;11.190;2023-07-20T00:05:42;8.50;;;7.70;;
16928;SDS011;8581;47.334;11.190;2023-07-20T00:08:14;8.37;;;7.57;;
16928;SDS011;8581;47.334;11.190;2023-07-20T00:10:46;8.50;;;7.70;;
16928;SDS011;8581;47.334;11.190;2023-07-20T00:13:18;15.53;;;8.30;;
16928;SDS011;8581;47.334;11.190;2023-07-20T00:15:50;8.27;;;7.47;;
16928;SDS011;8581;47.334;11.190;2023-07-20T00:18:21;23.43;;;8.97;;
16928;SDS011;8581;47.334;11.190;2023-07-20T00:20:53;10.47;;;8.20;;
16928;SDS011;8581;47.334;11.190;2023-07-20T00:23:24;8.90;;;8.10;;
16928;SDS011;8581;47.334;11.190;2023-07-20T00:25:56;8.13;;;7.43;;
16928;SDS011;8581;47.334;11.190;2023-07-20T00:28:27;8.43;;;7.03;;
16928;SDS011;8581;47.334;11.190;2023-07-20T00:30:59;8.30;;;7.50;;
16928;SDS011;8581;47.334;11.190;2023-07-20T00:33:31;7.40;;;6.60;;
16928;SDS011;8581;47.334;11.190;2023-07-20T00:36:02;7.53;;;6.37;;
16928;SDS011;8581;47.334;11.190;2023-07-20T00:38:34;7.13;;;5.90;;
16928;SDS011;8581;47.334;11.190;2023-07-20T00:41:05;6.80;;;5.00;;
16928;SDS011;8581;47.334;11.190;2023-07-20T00:43:37;6.07;;;5.00;;
16928;SDS011;8581;47.334;11.190;2023-07-20T00:46:09;7.07;;;5.40;;
16928;SDS011;8581;47.334;11.190;2023-07-20T00:48:40;7.07;;;5.40;;
16928;SDS011;8581;47.334;11.190;2023-07-20T00:51:12;9.20;;;5.20;;
16928;SDS011;8581;47.334;11.190;2023-07-20T00:53:43;7.00;;;4.77;;
16928;SDS011;8581;47.334;11.190;2023-07-20T00:56:15;5.67;;;5.00;;
16928;SDS011;8581;47.334;11.190;2023-07-20T00:58:47;5.30;;;4.80;;
16928;SDS011;8581;47.334;11.190;2023-07-20T01:01:18;4.90;;;4.40;;
16928;SDS011;8581;47.334;11.190;2023-07-20T01:03:50;4.30;;;4.00;;
16928;SDS011;8581;47.334;11.190;2023-07-20T01:06:25;6.30;;;4.67;;
16928;SDS011;8581;47.334;11.190;2023-07-20T01:09:03;4.80;;;4.30;;
16928;SDS011;8581;47.334;11.190;2023-07-20T01:11:36;4.20;;;3.80;;
16928;SDS011;8581;47.334;11.190;2023-07-20T01:14:07;5.37;;;4.63;;
16928;SDS011;8581;47.334;11.190;2023-07-20T01:16:38;5.07;;;4.60;;
16928;SDS011;8581;47.334;11.190;2023-07-20T01:19:10;4.13;;;3.73;;
16928;SDS011;8581;47.334;11.190;2023-07-20T01:21:53;4.20;;;3.80;;
16928;SDS011;8581;47.334;11.190;2023-07-20T01:27:36;3.73;;;3.43;;
16928;SDS011;8581;47.334;11.190;2023-07-20T01:30:16;5.33;;;4.00;;
16928;SDS011;8581;47.334;11.190;2023-07-20T01:32:45;5.13;;;3.90;;
16928;SDS011;8581;47.334;11.190;2023-07-20T01:35:17;4.37;;;3.97;;
16928;SDS011;8581;47.334;11.190;2023-07-20T01:37:48;3.63;;;3.33;;
16928;SDS011;8581;47.334;11.190;2023-07-20T01:40:20;4.37;;;3.73;;
16928;SDS011;8581;47.334;11.190;2023-07-20T01:42:52;4.30;;;3.87;;
16928;SDS011;8581;47.334;11.190;2023-07-20T01:45:23;4.20;;;3.80;;
16928;SDS011;8581;47.334;11.190;2023-07-20T01:47:55;4.13;;;3.77;;
16928;SDS011;8581;47.334;11.190;2023-07-20T01:50:26;3.83;;;3.43;;
16928;SDS011;8581;47.334;11.190;2023-07-20T01:52:58;5.53;;;3.67;;
16928;SDS011;8581;47.334;11.190;2023-07-20T01:55:29;4.07;;;3.67;;
16928;SDS011;8581;47.334;11.190;2023-07-20T01:58:01;5.30;;;3.77;;
16928;SDS011;8581;47.334;11.190;2023-07-20T02:00:33;4.00;;;3.70;;
16928;SDS011;8581;47.334;11.190;2023-07-20T02:03:04;5.17;;;4.17;;
16928;SDS011;8581;47.334;11.190;2023-07-20T02:05:36;4.40;;;3.97;;
16928;SDS011;8581;47.334;11.190;2023-07-20T02:08:07;4.57;;;3.93;;
16928;SDS011;8581;47.334;11.190;2023-07-20T02:10:39;5.77;;;3.70;;
16928;SDS011;8581;47.334;11.190;2023-07-20T02:13:11;6.10;;;3.83;;
16928;SDS011;8581;47.334;11.190;2023-07-20T02:15:42;5.33;;;3.83;;
16928;SDS011;8581;47.334;11.190;2023-07-20T02:18:14;4.60;;;3.63;;
16928;SDS011;8581;47.334;11.190;2023-07-20T02:20:45;4.40;;;3.80;;
16928;SDS011;8581;47.334;11.190;2023-07-20T02:23:17;4.30;;;3.83;;
16928;SDS011;8581;47.334;11.190;2023-07-20T02:25:49;4.07;;;3.67;;
16928;SDS011;8581;47.334;11.190;2023-07-20T02:28:20;5.53;;;4.03;;
16928;SDS011;8581;47.334;11.190;2023-07-20T02:30:52;4.73;;;4.20;;
16928;SDS011;8581;47.334;11.190;2023-07-20T02:33:23;7.50;;;6.90;;
16928;SDS011;8581;47.334;11.190;2023-07-20T02:35:55;4.33;;;3.93;;
16928;SDS011;8581;47.334;11.190;2023-07-20T02:38:27;4.37;;;3.77;;
16928;SDS011;8581;47.334;11.190;2023-07-20T02:40:58;4.17;;;3.50;;
16928;SDS011;8581;47.334;11.190;2023-07-20T02:43:30;3.50;;;3.20;;
16928;SDS011;8581;47.334;11.190;2023-07-20T02:46:01;4.17;;;3.77;;
16928;SDS011;8581;47.334;11.190;2023-07-20T02:48:33;3.57;;;3.27;;
16928;SDS011;8581;47.334;11.190;2023-07-20T02:51:05;4.27;;;3.87;;
16928;SDS011;8581;47.334;11.190;2023-07-20T02:53:36;4.00;;;3.60;;
16928;SDS011;8581;47.334;11.190;2023-07-20T02:56:08;3.73;;;3.30;;
16928;SDS011;8581;47.334;11.190;2023-07-20T02:58:40;3.90;;;3.40;;
16928;SDS011;8581;47.334;11.190;2023-07-20T03:01:11;3.77;;;3.37;;
16928;SDS011;8581;47.334;11.190;2023-07-20T03:03:43;4.17;;;3.60;;
16928;SDS011;8581;47.334;11.190;2023-07-20T03:06:14;4.43;;;3.57;;
16928;SDS011;8581;47.334;11.190;2023-07-20T03:08:46;4.47;;;3.27;;
16928;SDS011;8581;47.334;11.190;2023-07-20T03:11:18;4.43;;;3.33;;
16928;SDS011;8581;47.334;11.190;2023-07-20T03:13:49;4.43;;;3.67;;
16928;SDS011;8581;47.334;11.190;2023-07-20T03:16:21;4.97;;;3.60;;
16928;SDS011;8581;47.334;11.190;2023-07-20T03:18:52;4.90;;;3.70;;
16928;SDS011;8581;47.334;11.190;2023-07-20T03:21:24;4.80;;;3.60;;
16928;SDS011;8581;47.334;11.190;2023-07-20T03:23:55;5.00;;;3.67;;
16928;SDS011;8581;47.334;11.190;2023-07-20T03:26:27;4.43;;;3.63;;
16928;SDS011;8581;47.334;11.190;2023-07-20T03:28:59;4.47;;;3.47;;
16928;SDS011;8581;47.334;11.190;2023-07-20T03:31:30;4.67;;;4.03;;
16928;SDS011;8581;47.334;11.190;2023-07-20T03:34:02;4.00;;;3.70;;
16928;SDS011;8581;47.334;11.190;2023-07-20T03:36:33;4.40;;;4.00;;
16928;SDS011;8581;47.334;11.190;2023-07-20T03:39:05;4.13;;;3.73;;
16928;SDS011;8581;47.334;11.190;2023-07-20T03:41:37;4.87;;;3.97;;
16928;SDS011;8581;47.334;11.190;2023-07-20T03:44:08;3.93;;;3.63;;
16928;SDS011;8581;47.334;11.190;2023-07-20T03:46:40;4.83;;;3.40;;
16928;SDS011;8581;47.334;11.190;2023-07-20T03:49:11;4.50;;;4.10;;
16928;SDS011;8581;47.334;11.190;2023-07-20T03:51:43;6.03;;;4.03;;
16928;SDS011;8581;47.334;11.190;2023-07-20T03:54:15;4.40;;;4.00;;
16928;SDS011;8581;47.334;11.190;2023-07-20T03:56:46;7.90;;;4.00;;
16928;SDS011;8581;47.334;11.190;2023-07-20T03:59:18;5.00;;;4.03;;
16928;SDS011;8581;47.334;11.190;2023-07-20T04:01:51;4.33;;;3.83;;
16928;SDS011;8581;47.334;11.190;2023-07-20T04:04:22;4.40;;;3.73;;
16928;SDS011;8581;47.334;11.190;2023-07-20T04:06:54;4.67;;;3.60;;
16928;SDS011;8581;47.334;11.190;2023-07-20T04:09:26;5.53;;;4.00;;
16928;SDS011;8581;47.334;11.190;2023-07-20T04:11:57;6.03;;;3.90;;
16928;SDS011;8581;47.334;11.190;2023-07-20T04:14:29;4.70;;;4.20;;
16928;SDS011;8581;47.334;11.190;2023-07-20T04:17:00;4.27;;;3.87;;
16928;SDS011;8581;47.334;11.190;2023-07-20T04:19:32;4.57;;;3.67;;
16928;SDS011;8581;47.334;11.190;2023-07-20T04:22:04;4.40;;;4.00;;
16928;SDS011;8581;47.334;11.190;2023-07-20T04:24:35;4.83;;;4.43;;
16928;SDS011;8581;47.334;11.190;2023-07-20T04:27:07;4.90;;;4.37;;
16928;SDS011;8581;47.334;11.190;2023-07-20T04:29:38;6.73;;;4.70;;
16928;SDS011;8581;47.334;11.190;2023-07-20T04:32:10;5.97;;;4.60;;
16928;SDS011;8581;47.334;11.190;2023-07-20T04:34:42;4.33;;;3.90;;
16928;SDS011;8581;47.334;11.190;2023-07-20T04:37:13;6.00;;;4.40;;
16928;SDS011;8581;47.334;11.190;2023-07-20T04:39:45;4.40;;;4.00;;
16928;SDS011;8581;47.334;11.190;2023-07-20T04:42:17;4.63;;;4.23;;
16928;SDS011;8581;47.334;11.190;2023-07-20T04:44:48;4.83;;;4.00;;
16928;SDS011;8581;47.334;11.190;2023-07-20T04:47:20;4.40;;;4.00;;
16928;SDS011;8581;47.334;11.190;2023-07-20T04:49:51;6.20;;;4.20;;
16928;SDS011;8581;47.334;11.190;2023-07-20T04:52:23;5.00;;;4.20;;
16928;SDS011;8581;47.334;11.190;2023-07-20T04:54:54;4.83;;;3.93;;
16928;SDS011;8581;47.334;11.190;2023-07-20T04:57:26;5.50;;;4.63;;
16928;SDS011;8581;47.334;11.190;2023-07-20T04:59:58;5.77;;;4.43;;
16928;SDS011;8581;47.334;11.190;2023-07-20T05:02:29;4.53;;;4.03;;
16928;SDS011;8581;47.334;11.190;2023-07-20T05:05:01;6.20;;;5.03;;
16928;SDS011;8581;47.334;11.190;2023-07-20T05:07:32;5.70;;;5.10;;
16928;SDS011;8581;47.334;11.190;2023-07-20T05:10:04;5.93;;;4.77;;
16928;SDS011;8581;47.334;11.190;2023-07-20T05:12:37;5.67;;;4.90;;
16928;SDS011;8581;47.334;11.190;2023-07-20T05:15:09;6.60;;;4.67;;
16928;SDS011;8581;47.334;11.190;2023-07-20T05:17:40;4.73;;;4.33;;
16928;SDS011;8581;47.334;11.190;2023-07-20T05:20:12;4.53;;;4.13;;
16928;SDS011;8581;47.334;11.190;2023-07-20T05:22:44;5.27;;;4.60;;
16928;SDS011;8581;47.334;11.190;2023-07-20T05:25:15;6.57;;;4.27;;
16928;SDS011;8581;47.334;11.190;2023-07-20T05:27:47;4.90;;;4.37;;
16928;SDS011;8581;47.334;11.190;2023-07-20T05:30:18;4.43;;;4.03;;
16928;SDS011;8581;47.334;11.190;2023-07-20T05:32:50;5.43;;;5.00;;
16928;SDS011;8581;47.334;11.190;2023-07-20T05:35:22;5.33;;;4.50;;
16928;SDS011;8581;47.334;11.190;2023-07-20T05:37:53;5.23;;;4.70;;
16928;SDS011;8581;47.334;11.190;2023-07-20T05:40:25;5.43;;;4.80;;
16928;SDS011;8581;47.334;11.190;2023-07-20T05:42:56;5.73;;;5.07;;
16928;SDS011;8581;47.334;11.190;2023-07-20T05:45:28;6.67;;;4.30;;
16928;SDS011;8581;47.334;11.190;2023-07-20T05:48:00;4.93;;;4.50;;
16928;SDS011;8581;47.334;11.190;2023-07-20T05:50:31;5.97;;;5.30;;
16928;SDS011;8581;47.334;11.190;2023-07-20T05:53:03;4.67;;;4.27;;
16928;SDS011;8581;47.334;11.190;2023-07-20T05:55:34;4.80;;;4.40;;
16928;SDS011;8581;47.334;11.190;2023-07-20T05:58:06;4.33;;;3.93;;
16928;SDS011;8581;47.334;11.190;2023-07-20T06:00:38;5.67;;;4.50;;
16928;SDS011;8581;47.334;11.190;2023-07-20T06:03:09;5.97;;;4.80;;
16928;SDS011;8581;47.334;11.190;2023-07-20T06:05:41;6.33;;;4.10;;
16928;SDS011;8581;47.334;11.190;2023-07-20T06:08:12;4.60;;;3.10;;
16928;SDS011;8581;47.334;11.190;2023-07-20T06:10:44;3.73;;;3.37;;
16928;SDS011;8581;47.334;11.190;2023-07-20T06:13:16;3.87;;;3.20;;
16928;SDS011;8581;47.334;11.190;2023-07-20T06:15:47;6.40;;;3.60;;
16928;SDS011;8581;47.334;11.190;2023-07-20T06:18:19;3.60;;;3.23;;
16928;SDS011;8581;47.334;11.190;2023-07-20T06:20:51;3.93;;;3.23;;
16928;SDS011;8581;47.334;11.190;2023-07-20T06:23:22;6.15;;;3.08;;
16928;SDS011;8581;47.334;11.190;2023-07-20T06:25:54;6.63;;;2.90;;
16928;SDS011;8581;47.334;11.190;2023-07-20T06:28:25;4.50;;;2.63;;
16928;SDS011;8581;47.334;11.190;2023-07-20T06:31:00;3.75;;;2.60;;
16928;SDS011;8581;47.334;11.190;2023-07-20T06:33:31;2.83;;;2.57;;
16928;SDS011;8581;47.334;11.190;2023-07-20T06:36:03;4.43;;;2.80;;
16928;SDS011;8581;47.334;11.190;2023-07-20T06:38:35;4.83;;;3.00;;
16928;SDS011;8581;47.334;11.190;2023-07-20T06:41:07;4.93;;;2.77;;
16928;SDS011;8581;47.334;11.190;2023-07-20T06:43:38;4.00;;;2.63;;
16928;SDS011;8581;47.334;11.190;2023-07-20T06:46:10;4.00;;;2.60;;
16928;SDS011;8581;47.334;11.190;2023-07-20T06:48:41;3.60;;;2.57;;
16928;SDS011;8581;47.334;11.190;2023-07-20T06:51:13;7.23;;;2.70;;
16928;SDS011;8581;47.334;11.190;2023-07-20T06:53:45;3.50;;;2.67;;
16928;SDS011;8581;47.334;11.190;2023-07-20T06:56:16;2.73;;;2.40;;
16928;SDS011;8581;47.334;11.190;2023-07-20T06:58:48;2.20;;;1.90;;
16928;SDS011;8581;47.334;11.190;2023-07-20T07:01:19;2.12;;;1.92;;
16928;SDS011;8581;47.334;11.190;2023-07-20T07:03:51;6.10;;;2.10;;
16928;SDS011;8581;47.334;11.190;2023-07-20T07:06:23;4.60;;;2.47;;
16928;SDS011;8581;47.334;11.190;2023-07-20T07:08:54;3.37;;;2.30;;
16928;SDS011;8581;47.334;11.190;2023-07-20T07:11:26;2.90;;;2.17;;
16928;SDS011;8581;47.334;11.190;2023-07-20T07:13:57;4.70;;;2.52;;
16928;SDS011;8581;47.334;11.190;2023-07-20T07:16:29;3.15;;;2.58;;
16928;SDS011;8581;47.334;11.190;2023-07-20T07:19:01;3.05;;;2.42;;
16928;SDS011;8581;47.334;11.190;2023-07-20T07:21:32;4.10;;;2.40;;
16928;SDS011;8581;47.334;11.190;2023-07-20T07:24:04;2.97;;;2.33;;
16928;SDS011;8581;47.334;11.190;2023-07-20T07:26:37;4.45;;;2.22;;
16928;SDS011;8581;47.334;11.190;2023-07-20T07:29:08;6.35;;;2.30;;
16928;SDS011;8581;47.334;11.190;2023-07-20T07:31:40;2.47;;;2.12;;
16928;SDS011;8581;47.334;11.190;2023-07-20T07:34:12;3.42;;;2.25;;
16928;SDS011;8581;47.334;11.190;2023-07-20T07:36:46;5.78;;;1.90;;
16928;SDS011;8581;47.334;11.190;2023-07-20T07:39:17;3.55;;;2.25;;
16928;SDS011;8581;47.334;11.190;2023-07-20T07:41:49;3.92;;;2.40;;
16928;SDS011;8581;47.334;11.190;2023-07-20T07:44:21;5.27;;;2.23;;
16928;SDS011;8581;47.334;11.190;2023-07-20T07:46:52;3.00;;;2.20;;
16928;SDS011;8581;47.334;11.190;2023-07-20T07:49:24;3.27;;;2.35;;
16928;SDS011;8581;47.334;11.190;2023-07-20T07:51:55;3.08;;;2.30;;
16928;SDS011;8581;47.334;11.190;2023-07-20T07:54:27;4.47;;;2.50;;
16928;SDS011;8581;47.334;11.190;2023-07-20T07:56:59;3.72;;;2.30;;
16928;SDS011;8581;47.334;11.190;2023-07-20T07:59:30;4.72;;;2.42;;
16928;SDS011;8581;47.334;11.190;2023-07-20T08:02:03;4.92;;;2.02;;
16928;SDS011;8581;47.334;11.190;2023-07-20T08:04:36;3.70;;;2.27;;
16928;SDS011;8581;47.334;11.190;2023-07-20T08:07:07;3.55;;;2.08;;
16928;SDS011;8581;47.334;11.190;2023-07-20T08:09:47;3.65;;;2.22;;
16928;SDS011;8581;47.334;11.190;2023-07-20T08:12:25;5.15;;;2.60;;
16928;SDS011;8581;47.334;11.190;2023-07-20T08:14:56;4.15;;;2.10;;
16928;SDS011;8581;47.334;11.190;2023-07-20T08:17:28;7.20;;;2.33;;
16928;SDS011;8581;47.334;11.190;2023-07-20T08:20:00;9.08;;;2.60;;
16928;SDS011;8581;47.334;11.190;2023-07-20T08:22:31;6.03;;;2.45;;
16928;SDS011;8581;47.334;11.190;2023-07-20T08:25:03;3.20;;;2.15;;
16928;SDS011;8581;47.334;11.190;2023-07-20T08:27:36;3.47;;;2.20;;
16928;SDS011;8581;47.334;11.190;2023-07-20T08:30:07;3.40;;;2.50;;
16928;SDS011;8581;47.334;11.190;2023-07-20T08:32:46;3.02;;;2.35;;
16928;SDS011;8581;47.334;11.190;2023-07-20T08:35:18;4.92;;;2.47;;
16928;SDS011;8581;47.334;11.190;2023-07-20T08:37:53;4.70;;;2.22;;
16928;SDS011;8581;47.334;11.190;2023-07-20T08:40:27;3.37;;;2.50;;
16928;SDS011;8581;47.334;11.190;2023-07-20T08:43:00;4.08;;;2.17;;
16928;SDS011;8581;47.334;11.190;2023-07-20T08:45:35;2.52;;;2.33;;
16928;SDS011;8581;47.334;11.190;2023-07-20T08:48:07;2.27;;;1.87;;
16928;SDS011;8581;47.334;11.190;2023-07-20T08:50:38;2.40;;;2.20;;
16928;SDS011;8581;47.334;11.190;2023-07-20T08:53:10;6.15;;;2.40;;
16928;SDS011;8581;47.334;11.190;2023-07-20T08:55:42;5.33;;;2.20;;
16928;SDS011;8581;47.334;11.190;2023-07-20T08:58:14;3.27;;;2.25;;
16928;SDS011;8581;47.334;11.190;2023-07-20T09:00:45;3.25;;;2.45;;
16928;SDS011;8581;47.334;11.190;2023-07-20T09:03:17;3.77;;;2.52;;
16928;SDS011;8581;47.334;11.190;2023-07-20T09:05:49;3.22;;;2.50;;
16928;SDS011;8581;47.334;11.190;2023-07-20T09:08:20;2.75;;;2.37;;
16928;SDS011;8581;47.334;11.190;2023-07-20T09:10:53;7.03;;;2.50;;
16928;SDS011;8581;47.334;11.190;2023-07-20T09:13:25;3.05;;;2.20;;
16928;SDS011;8581;47.334;11.190;2023-07-20T09:15:56;4.75;;;2.12;;
16928;SDS011;8581;47.334;11.190;2023-07-20T09:18:28;4.37;;;2.30;;
16928;SDS011;8581;47.334;11.190;2023-07-20T09:21:02;4.92;;;2.60;;
16928;SDS011;8581;47.334;11.190;2023-07-20T09:23:35;3.00;;;2.50;;
16928;SDS011;8581;47.334;11.190;2023-07-20T09:26:09;2.65;;;2.42;;
16928;SDS011;8581;47.334;11.190;2023-07-20T09:28:44;2.60;;;2.27;;
16928;SDS011;8581;47.334;11.190;2023-07-20T09:31:30;2.60;;;2.10;;
16928;SDS011;8581;47.334;11.190;2023-07-20T09:34:01;3.33;;;2.35;;
16928;SDS011;8581;47.334;11.190;2023-07-20T09:36:35;2.65;;;2.45;;
16928;SDS011;8581;47.334;11.190;2023-07-20T09:39:05;3.22;;;2.45;;
16928;SDS011;8581;47.334;11.190;2023-07-20T09:41:39;3.58;;;2.50;;
16928;SDS011;8581;47.334;11.190;2023-07-20T09:44:10;2.92;;;2.05;;
16928;SDS011;8581;47.334;11.190;2023-07-20T09:46:47;3.35;;;2.55;;
16928;SDS011;8581;47.334;11.190;2023-07-20T09:49:20;2.50;;;2.20;;
16928;SDS011;8581;47.334;11.190;2023-07-20T09:51:51;3.98;;;2.20;;
16928;SDS011;8581;47.334;11.190;2023-07-20T09:54:23;5.35;;;2.30;;
16928;SDS011;8581;47.334;11.190;2023-07-20T09:56:54;2.92;;;2.12;;
16928;SDS011;8581;47.334;11.190;2023-07-20T09:59:26;3.20;;;2.30;;
16928;SDS011;8581;47.334;11.190;2023-07-20T10:01:58;2.20;;;2.00;;
16928;SDS011;8581;47.334;11.190;2023-07-20T10:04:29;2.40;;;2.20;;
16928;SDS011;8581;47.334;11.190;2023-07-20T10:07:01;3.17;;;2.30;;
16928;SDS011;8581;47.334;11.190;2023-07-20T10:09:32;2.35;;;2.15;;
16928;SDS011;8581;47.334;11.190;2023-07-20T10:12:04;2.00;;;1.90;;
16928;SDS011;8581;47.334;11.190;2023-07-20T10:14:38;3.52;;;2.25;;
16928;SDS011;8581;47.334;11.190;2023-07-20T10:17:09;3.05;;;1.98;;
16928;SDS011;8581;47.334;11.190;2023-07-20T10:19:43;4.12;;;2.30;;
16928;SDS011;8581;47.334;11.190;2023-07-20T10:22:19;4.12;;;2.15;;
16928;SDS011;8581;47.334;11.190;2023-07-20T10:24:49;1.87;;;1.77;;
16928;SDS011;8581;47.334;11.190;2023-07-20T10:27:22;2.10;;;1.90;;
16928;SDS011;8581;47.334;11.190;2023-07-20T10:29:55;3.47;;;2.20;;
16928;SDS011;8581;47.334;11.190;2023-07-20T10:32:30;4.70;;;2.08;;
16928;SDS011;8581;47.334;11.190;2023-07-20T10:35:13;3.10;;;2.27;;
16928;SDS011;8581;47.334;11.190;2023-07-20T10:37:47;2.40;;;2.20;;
16928;SDS011;8581;47.334;11.190;2023-07-20T10:40:27;3.65;;;2.25;;
16928;SDS011;8581;47.334;11.190;2023-07-20T10:43:04;2.35;;;1.70;;
16928;SDS011;8581;47.334;11.190;2023-07-20T10:45:41;2.95;;;2.40;;
16928;SDS011;8581;47.334;11.190;2023-07-20T10:48:13;2.58;;;2.00;;
16928;SDS011;8581;47.334;11.190;2023-07-20T10:50:44;2.85;;;2.20;;
16928;SDS011;8581;47.334;11.190;2023-07-20T10:53:17;3.83;;;2.70;;
16928;SDS011;8581;47.334;11.190;2023-07-20T10:55:47;4.50;;;1.87;;
16928;SDS011;8581;47.334;11.190;2023-07-20T10:58:19;3.52;;;2.27;;
16928;SDS011;8581;47.334;11.190;2023-07-20T11:00:58;2.65;;;2.00;;
16928;SDS011;8581;47.334;11.190;2023-07-20T11:03:30;3.25;;;1.95;;
16928;SDS011;8581;47.334;11.190;2023-07-20T11:09:08;2.12;;;1.92;;
16928;SDS011;8581;47.334;11.190;2023-07-20T11:11:38;3.37;;;1.92;;
16928;SDS011;8581;47.334;11.190;2023-07-20T11:14:09;3.42;;;1.87;;
16928;SDS011;8581;47.334;11.190;2023-07-20T11:16:42;2.72;;;2.20;;
16928;SDS011;8581;47.334;11.190;2023-07-20T11:19:18;2.45;;;2.10;;
16928;SDS011;8581;47.334;11.190;2023-07-20T11:21:53;3.10;;;2.00;;
16928;SDS011;8581;47.334;11.190;2023-07-20T11:24:24;2.98;;;2.12;;
16928;SDS011;8581;47.334;11.190;2023-07-20T11:26:56;1.70;;;1.60;;
16928;SDS011;8581;47.334;11.190;2023-07-20T11:29:28;2.58;;;2.02;;
16928;SDS011;8581;47.334;11.190;2023-07-20T11:31:59;2.67;;;1.95;;
16928;SDS011;8581;47.334;11.190;2023-07-20T11:34:31;1.98;;;1.80;;
16928;SDS011;8581;47.334;11.190;2023-07-20T11:37:03;2.37;;;2.17;;
16928;SDS011;8581;47.334;11.190;2023-07-20T11:39:34;2.10;;;1.90;;
16928;SDS011;8581;47.334;11.190;2023-07-20T11:42:06;3.95;;;2.22;;
16928;SDS011;8581;47.334;11.190;2023-07-20T11:44:38;3.40;;;2.40;;
16928;SDS011;8581;47.334;11.190;2023-07-20T11:47:10;3.20;;;1.90;;
16928;SDS011;8581;47.334;11.190;2023-07-20T11:49:42;2.12;;;1.90;;
16928;SDS011;8581;47.334;11.190;2023-07-20T11:52:14;2.95;;;2.15;;
16928;SDS011;8581;47.334;11.190;2023-07-20T11:54:45;2.52;;;2.30;;
16928;SDS011;8581;47.334;11.190;2023-07-20T11:57:17;4.50;;;2.15;;
16928;SDS011;8581;47.334;11.190;2023-07-20T11:59:52;2.67;;;2.10;;
16928;SDS011;8581;47.334;11.190;2023-07-20T12:02:26;2.12;;;1.92;;
16928;SDS011;8581;47.334;11.190;2023-07-20T12:04:56;3.17;;;2.08;;
16928;SDS011;8581;47.334;11.190;2023-07-20T12:07:28;2.95;;;1.98;;
16928;SDS011;8581;47.334;11.190;2023-07-20T12:10:03;2.47;;;2.10;;
16928;SDS011;8581;47.334;11.190;2023-07-20T12:12:34;2.60;;;2.08;;
16928;SDS011;8581;47.334;11.190;2023-07-20T12:15:15;2.17;;;1.82;;
16928;SDS011;8581;47.334;11.190;2023-07-20T12:17:55;2.70;;;2.10;;
16928;SDS011;8581;47.334;11.190;2023-07-20T12:20:29;2.50;;;2.20;;
16928;SDS011;8581;47.334;11.190;2023-07-20T12:23:02;2.15;;;1.95;;
16928;SDS011;8581;47.334;11.190;2023-07-20T12:25:37;2.35;;;1.95;;
16928;SDS011;8581;47.334;11.190;2023-07-20T12:28:08;2.10;;;1.92;;
16928;SDS011;8581;47.334;11.190;2023-07-20T12:30:40;2.22;;;2.00;;
16928;SDS011;8581;47.334;11.190;2023-07-20T12:33:11;2.95;;;2.10;;
16928;SDS011;8581;47.334;11.190;2023-07-20T12:35:43;3.70;;;2.10;;
16928;SDS011;8581;47.334;11.190;2023-07-20T12:38:15;3.05;;;1.98;;
16928;SDS011;8581;47.334;11.190;2023-07-20T12:40:46;3.15;;;2.10;;
16928;SDS011;8581;47.334;11.190;2023-07-20T12:43:18;4.40;;;2.20;;
16928;SDS011;8581;47.334;11.190;2023-07-20T12:45:49;2.75;;;1.80;;
16928;SDS011;8581;47.334;11.190;2023-07-20T12:48:21;2.35;;;1.92;;
16928;SDS011;8581;47.334;11.190;2023-07-20T12:50:53;2.02;;;1.90;;
16928;SDS011;8581;47.334;11.190;2023-07-20T12:53:24;2.10;;;1.90;;
16928;SDS011;8581;47.334;11.190;2023-07-20T12:55:56;2.62;;;1.98;;
16928;SDS011;8581;47.334;11.190;2023-07-20T12:58:27;3.77;;;1.85;;
16928;SDS011;8581;47.334;11.190;2023-07-20T13:00:59;2.67;;;2.20;;
16928;SDS011;8581;47.334;11.190;2023-07-20T13:03:31;2.42;;;1.92;;
16928;SDS011;8581;47.334;11.190;2023-07-20T13:06:02;2.27;;;2.00;;
16928;SDS011;8581;47.334;11.190;2023-07-20T13:08:34;2.83;;;2.33;;
16928;SDS011;8581;47.334;11.190;2023-07-20T13:11:05;3.62;;;2.05;;
16928;SDS011;8581;47.334;11.190;2023-07-20T13:13:37;3.75;;;1.92;;
16928;SDS011;8581;47.334;11.190;2023-07-20T13:16:09;2.27;;;2.00;;
16928;SDS011;8581;47.334;11.190;2023-07-20T13:18:40;3.60;;;1.92;;
16928;SDS011;8581;47.334;11.190;2023-07-20T13:21:12;2.60;;;2.15;;
16928;SDS011;8581;47.334;11.190;2023-07-20T13:23:43;1.80;;;1.70;;
16928;SDS011;8581;47.334;11.190;2023-07-20T13:26:15;2.02;;;1.85;;
16928;SDS011;8581;47.334;11.190;2023-07-20T13:28:47;3.05;;;1.70;;
16928;SDS011;8581;47.334;11.190;2023-07-20T13:31:18;2.70;;;2.20;;
16928;SDS011;8581;47.334;11.190;2023-07-20T13:33:50;4.37;;;1.87;;
16928;SDS011;8581;47.334;11.190;2023-07-20T13:36:22;3.25;;;2.27;;
16928;SDS011;8581;47.334;11.190;2023-07-20T13:38:53;2.47;;;2.10;;
16928;SDS011;8581;47.334;11.190;2023-07-20T13:41:25;3.25;;;1.80;;
16928;SDS011;8581;47.334;11.190;2023-07-20T13:43:56;3.20;;;2.08;;
16928;SDS011;8581;47.334;11.190;2023-07-20T13:46:28;1.80;;;1.70;;
16928;SDS011;8581;47.334;11.190;2023-07-20T13:48:59;2.45;;;2.00;;
16928;SDS011;8581;47.334;11.190;2023-07-20T13:51:31;2.58;;;2.00;;
16928;SDS011;8581;47.334;11.190;2023-07-20T13:54:03;4.53;;;2.30;;
16928;SDS011;8581;47.334;11.190;2023-07-20T13:56:34;3.20;;;2.08;;
16928;SDS011;8581;47.334;11.190;2023-07-20T13:59:06;2.10;;;1.92;;
16928;SDS011;8581;47.334;11.190;2023-07-20T14:01:37;2.60;;;2.20;;
16928;SDS011;8581;47.334;11.190;2023-07-20T14:04:09;2.80;;;1.80;;
16928;SDS011;8581;47.334;11.190;2023-07-20T14:06:41;2.15;;;2.00;;
16928;SDS011;8581;47.334;11.190;2023-07-20T14:09:12;2.27;;;1.82;;
16928;SDS011;8581;47.334;11.190;2023-07-20T14:11:44;5.87;;;2.00;;
16928;SDS011;8581;47.334;11.190;2023-07-20T14:14:15;5.67;;;2.10;;
16928;SDS011;8581;47.334;11.190;2023-07-20T14:16:47;2.65;;;2.17;;
16928;SDS011;8581;47.334;11.190;2023-07-20T14:19:19;4.35;;;1.95;;
16928;SDS011;8581;47.334;11.190;2023-07-20T14:21:50;1.98;;;1.87;;
16928;SDS011;8581;47.334;11.190;2023-07-20T14:24:22;2.37;;;1.90;;
16928;SDS011;8581;47.334;11.190;2023-07-20T14:26:53;5.50;;;2.30;;
16928;SDS011;8581;47.334;11.190;2023-07-20T14:29:25;2.50;;;2.00;;
16928;SDS011;8581;47.334;11.190;2023-07-20T14:31:57;2.98;;;1.85;;
16928;SDS011;8581;47.334;11.190;2023-07-20T14:34:28;2.35;;;1.90;;
16928;SDS011;8581;47.334;11.190;2023-07-20T14:37:00;1.90;;;1.80;;
16928;SDS011;8581;47.334;11.190;2023-07-20T14:39:31;1.92;;;1.72;;
16928;SDS011;8581;47.334;11.190;2023-07-20T14:42:03;2.83;;;1.87;;
16928;SDS011;8581;47.334;11.190;2023-07-20T14:44:35;2.22;;;2.02;;
16928;SDS011;8581;47.334;11.190;2023-07-20T14:47:06;5.28;;;1.98;;
16928;SDS011;8581;47.334;11.190;2023-07-20T14:49:38;2.08;;;1.98;;
16928;SDS011;8581;47.334;11.190;2023-07-20T14:52:10;3.55;;;2.10;;
16928;SDS011;8581;47.334;11.190;2023-07-20T14:54:41;3.85;;;2.30;;
16928;SDS011;8581;47.334;11.190;2023-07-20T14:57:13;2.45;;;1.82;;
16928;SDS011;8581;47.334;11.190;2023-07-20T14:59:44;2.80;;;1.90;;
16928;SDS011;8581;47.334;11.190;2023-07-20T15:02:16;3.30;;;2.22;;
16928;SDS011;8581;47.334;11.190;2023-07-20T15:04:48;3.25;;;2.00;;
16928;SDS011;8581;47.334;11.190;2023-07-20T15:07:19;4.05;;;2.05;;
16928;SDS011;8581;47.334;11.190;2023-07-20T15:09:51;2.55;;;2.05;;
16928;SDS011;8581;47.334;11.190;2023-07-20T15:12:22;1.90;;;1.80;;
16928;SDS011;8581;47.334;11.190;2023-07-20T15:17:33;2.12;;;1.92;;
16928;SDS011;8581;47.334;11.190;2023-07-20T15:20:05;2.22;;;2.00;;
16928;SDS011;8581;47.334;11.190;2023-07-20T15:22:37;5.17;;;1.85;;
16928;SDS011;8581;47.334;11.190;2023-07-20T15:25:09;1.80;;;1.70;;
16928;SDS011;8581;47.334;11.190;2023-07-20T15:27:42;1.95;;;1.70;;